Time;durP1;ratioP1;P1;durP2;ratioP2;P2;SDS_P1;SDS_P2;PMS_P1;PMS_P2;Temp;Humidity;BMP_temperature;BMP_pressure;BME280_temperature;BME280_humidity;BME280_pressure;Samples;Min_cycle;Max_cycle;Signal;HPM_P1;HPM_P2
2022/05/20 00:01:55;;;;;;;;;;;;;;;23.09;56.80;97996.63;610748;232;64380;-70
2022/05/20 00:04:22;;;;;;;;;;;;;;;23.10;56.53;98000.91;610665;231;65094;-70
2022/05/20 00:06:50;;;;;;;;;;;;;;;23.11;56.27;98004.39;610735;232;64302;-70
2022/05/20 00:09:17;;;;;;;;;;;;;;;23.09;56.92;98007.34;610788;232;66805;-70
2022/05/20 00:11:45;;;;;;;;;;;;;;;23.09;56.16;97995.82;610721;232;65409;-70
2022/05/20 00:14:13;;;;;;;;;;;;;;;23.09;57.16;98001.19;610743;232;64327;-70
2022/05/20 00:16:40;;;;;;;;;;;;;;;23.09;56.59;97999.30;610741;232;64562;-70
2022/05/20 00:19:08;;;;;;;;;;;;;;;23.09;56.78;98001.19;610712;232;62992;-70
2022/05/20 00:21:36;;;;;;;;;;;;;;;23.09;57.60;98001.98;610760;232;67120;-70
2022/05/20 00:24:04;;;;;;;;;;;;;;;23.08;56.56;97996.87;610698;232;66912;-70
2022/05/20 00:26:31;;;;;;;;;;;;;;;23.08;56.54;98000.39;610696;232;65526;-70
2022/05/20 00:28:59;;;;;;;;;;;;;;;23.08;56.48;97999.55;610704;232;66682;-70
2022/05/20 00:31:27;;;;;;;;;;;;;;;23.08;56.46;97997.70;610741;232;66778;-71
2022/05/20 00:33:55;;;;;;;;;;;;;;;23.07;56.54;98004.11;610762;229;64964;-71
2022/05/20 00:36:23;;;;;;;;;;;;;;;23.07;56.79;98003.31;610725;232;64382;-71
2022/05/20 00:38:51;;;;;;;;;;;;;;;23.06;56.69;97999.83;610694;232;64576;-71
2022/05/20 00:41:18;;;;;;;;;;;;;;;23.06;56.59;97997.15;610736;229;65423;-71
2022/05/20 00:43:47;;;;;;;;;;;;;;;23.06;56.67;98005.19;610709;232;66730;-71
2022/05/20 00:46:16;;;;;;;;;;;;;;;23.06;56.73;98002.52;610693;232;66683;-71
2022/05/20 00:48:44;;;;;;;;;;;;;;;23.06;56.51;98009.75;610769;232;65095;-72
2022/05/20 00:51:22;;;;;;;;;;;;;;;23.05;56.51;98000.88;610673;232;66792;-72
2022/05/20 00:53:51;;;;;;;;;;;;;;;23.05;57.90;98006.23;610752;232;64588;-71
2022/05/20 00:56:20;;;;;;;;;;;;;;;23.04;56.82;98001.95;610649;230;63158;-71
2022/05/20 00:58:47;;;;;;;;;;;;;;;23.04;56.48;98004.64;610658;232;66755;-71
2022/05/20 01:01:15;;;;;;;;;;;;;;;23.03;57.30;97997.67;610786;232;63990;-70
2022/05/20 01:03:43;;;;;;;;;;;;;;;23.02;57.12;98002.20;613871;230;63114;-70
2022/05/20 01:12:51;;;;;;;;;;;;;;;23.02;56.76;98006.77;615335;230;37241;-71
2022/05/20 01:15:18;;;;;;;;;;;;;;;23.01;56.72;98008.64;615215;230;66706;-71
2022/05/20 01:17:46;;;;;;;;;;;;;;;23.00;56.88;98009.72;615234;230;66751;-71
2022/05/20 01:20:15;;;;;;;;;;;;;;;23.00;57.29;98009.72;615204;230;64184;-71
2022/05/20 01:22:50;;;;;;;;;;;;;;;22.99;57.13;98010.77;615159;230;66705;-71
2022/05/20 01:25:18;;;;;;;;;;;;;;;23.00;56.69;97998.20;615281;230;66762;-69
2022/05/20 01:27:46;;;;;;;;;;;;;;;23.00;56.73;98004.36;615216;230;65134;-69
2022/05/20 01:30:15;;;;;;;;;;;;;;;23.00;56.95;98007.05;615192;230;66357;-69
2022/05/20 01:32:43;;;;;;;;;;;;;;;22.99;57.03;97996.56;615223;230;67111;-69
2022/05/20 01:35:12;;;;;;;;;;;;;;;23.00;57.80;97998.20;615167;230;65323;-70
2022/05/20 01:37:39;;;;;;;;;;;;;;;22.98;57.38;97990.41;615185;230;67029;-69
2022/05/20 01:40:08;;;;;;;;;;;;;;;22.98;56.90;97986.92;615226;230;67421;-69
2022/05/20 01:42:37;;;;;;;;;;;;;;;23.00;56.37;97985.59;615216;230;65518;-69
2022/05/20 01:45:06;;;;;;;;;;;;;;;22.98;57.08;97971.64;615168;230;64621;-69
2022/05/20 01:47:38;;;;;;;;;;;;;;;22.98;56.46;97974.31;615019;230;66818;-70
2022/05/20 01:50:07;;;;;;;;;;;;;;;22.98;56.87;97982.36;610674;230;65485;-71
2022/05/20 01:52:42;;;;;;;;;;;;;;;22.98;56.98;97985.05;615101;230;66767;-69
2022/05/20 01:55:20;;;;;;;;;;;;;;;22.98;56.49;97989.60;615229;230;66652;-69
2022/05/20 01:57:52;;;;;;;;;;;;;;;22.98;56.92;97989.60;615249;230;65430;-70
2022/05/20 02:00:21;;;;;;;;;;;;;;;22.97;57.76;97982.61;615170;230;66554;-69
2022/05/20 02:03:03;;;;;;;;;;;;;;;22.97;57.26;97982.61;615270;230;66689;-70
2022/05/20 02:05:38;;;;;;;;;;;;;;;22.97;56.57;97979.92;615328;230;63003;-69
2022/05/20 02:08:13;;;;;;;;;;;;;;;22.95;57.48;97980.17;615242;230;64405;-70
2022/05/20 02:10:41;;;;;;;;;;;;;;;22.96;56.64;97981.80;614907;230;66635;-69
2022/05/20 02:13:10;;;;;;;;;;;;;;;22.96;57.79;97975.64;615215;230;65165;-69
2022/05/20 02:15:44;;;;;;;;;;;;;;;22.95;57.52;97982.85;615276;230;67279;-69
2022/05/20 02:18:13;;;;;;;;;;;;;;;22.94;57.19;97981.22;615307;230;64054;-69
2022/05/20 02:20:42;;;;;;;;;;;;;;;22.95;57.26;97984.73;615291;230;65454;-69
2022/05/20 02:23:11;;;;;;;;;;;;;;;22.94;56.36;97988.46;615291;230;66732;-70
2022/05/20 02:25:42;;;;;;;;;;;;;;;22.95;56.54;97992.77;615042;230;65018;-69
2022/05/20 02:28:22;;;;;;;;;;;;;;;22.95;57.28;97990.09;615267;229;62619;-69
2022/05/20 02:30:50;;;;;;;;;;;;;;;22.95;57.45;97990.09;615295;230;67025;-69
2022/05/20 02:33:19;;;;;;;;;;;;;;;22.93;57.35;97993.02;615245;230;66682;-69
2022/05/20 02:35:46;;;;;;;;;;;;;;;22.93;57.16;97992.22;615323;230;66052;-69
2022/05/20 02:38:16;;;;;;;;;;;;;;;22.93;56.81;97997.58;615276;229;66775;-69
2022/05/20 02:40:45;;;;;;;;;;;;;;;22.93;58.05;98000.27;615287;230;65053;-69
2022/05/20 02:43:13;;;;;;;;;;;;;;;22.93;57.52;98008.30;615307;230;65450;-70
2022/05/20 02:45:42;;;;;;;;;;;;;;;22.91;57.78;98000.51;615273;230;66251;-69
2022/05/20 02:48:10;;;;;;;;;;;;;;;22.92;57.64;97995.98;615332;230;66336;-69
2022/05/20 02:50:37;;;;;;;;;;;;;;;22.91;58.05;97997.02;615113;230;65501;-69
2022/05/20 02:53:05;;;;;;;;;;;;;;;22.90;57.31;97992.74;615324;230;66763;-69
2022/05/20 02:55:32;;;;;;;;;;;;;;;22.90;57.40;97992.74;615296;230;66367;-70
2022/05/20 02:58:00;;;;;;;;;;;;;;;22.91;57.32;97999.70;615304;230;63028;-69
2022/05/20 03:05:58;;;;;;;;;;;;;;;22.90;57.40;97995.42;610804;232;63123;-70
2022/05/20 03:08:26;;;;;;;;;;;;;;;22.89;57.09;98007.19;610771;232;67745;-70
2022/05/20 03:10:54;;;;;;;;;;;;;;;22.89;57.51;98010.70;610725;232;66619;-70
2022/05/20 03:13:21;;;;;;;;;;;;;;;22.88;57.54;98011.75;610744;232;62999;-70
2022/05/20 03:15:49;;;;;;;;;;;;;;;22.88;57.91;98008.27;610724;232;64628;-70
2022/05/20 03:18:16;;;;;;;;;;;;;;;22.89;57.08;98004.51;610774;232;64394;-70
2022/05/20 03:20:44;;;;;;;;;;;;;;;22.88;58.24;97998.34;610730;232;63001;-70
2022/05/20 03:23:11;;;;;;;;;;;;;;;22.87;57.68;97993.27;610679;232;66781;-71
2022/05/20 03:25:39;;;;;;;;;;;;;;;22.87;57.11;98003.98;610748;232;66667;-70
2022/05/20 03:28:06;;;;;;;;;;;;;;;22.87;58.52;98003.98;610733;232;65445;-70
2022/05/20 03:30:34;;;;;;;;;;;;;;;22.87;58.24;98001.30;610774;232;66415;-70
2022/05/20 03:33:01;;;;;;;;;;;;;;;22.86;57.21;97991.63;610770;232;66350;-70
2022/05/20 03:35:29;;;;;;;;;;;;;;;22.86;57.55;97994.31;610735;232;65128;-72
2022/05/20 03:37:57;;;;;;;;;;;;;;;22.87;57.41;97993.27;610681;232;64584;-72
2022/05/20 03:40:24;;;;;;;;;;;;;;;22.86;57.45;97994.31;610724;232;64848;-72
2022/05/20 03:42:51;;;;;;;;;;;;;;;22.86;57.88;98002.35;610789;232;64981;-72
2022/05/20 03:45:19;;;;;;;;;;;;;;;22.85;57.83;98001.55;610714;232;65505;-72
2022/05/20 03:47:47;;;;;;;;;;;;;;;22.84;58.01;98002.63;610727;232;66680;-72
2022/05/20 03:50:14;;;;;;;;;;;;;;;22.83;58.66;98009.87;610719;232;65185;-72
2022/05/20 03:52:41;;;;;;;;;;;;;;;22.82;58.31;97999.39;610702;232;64320;-72
2022/05/20 03:55:09;;;;;;;;;;;;;;;22.83;60.19;98007.19;610773;232;64596;-72
2022/05/20 03:57:37;;;;;;;;;;;;;;;22.82;58.74;98012.79;610763;232;62977;-72
2022/05/20 04:00:05;;;;;;;;;;;;;;;22.82;59.82;98013.59;610719;232;64373;-72
2022/05/20 04:02:34;;;;;;;;;;;;;;;22.82;58.95;98029.67;611773;230;45374;-72
2022/05/20 04:05:01;;;;;;;;;;;;;;;22.82;59.42;98029.67;615186;230;65478;-72
2022/05/20 04:07:29;;;;;;;;;;;;;;;22.83;57.80;98033.16;615248;230;67056;-72
2022/05/20 04:09:57;;;;;;;;;;;;;;;22.82;58.04;98029.67;615279;230;67256;-72
2022/05/20 04:12:28;;;;;;;;;;;;;;;22.82;57.85;98036.91;615196;230;65415;-72
2022/05/20 04:14:56;;;;;;;;;;;;;;;22.82;57.49;98035.03;615221;230;67018;-72
2022/05/20 04:17:24;;;;;;;;;;;;;;;22.81;57.74;98038.79;615197;230;66577;-72
2022/05/20 04:19:52;;;;;;;;;;;;;;;22.81;58.29;98030.75;615229;230;65468;-71
2022/05/20 04:22:21;;;;;;;;;;;;;;;22.81;58.24;98027.27;615312;230;66892;-72
2022/05/20 04:24:48;;;;;;;;;;;;;;;22.81;57.80;98038.79;615068;230;66600;-72
2022/05/20 04:27:16;;;;;;;;;;;;;;;22.81;59.57;98036.11;615213;230;65343;-72
2022/05/20 04:29:43;;;;;;;;;;;;;;;22.80;58.76;98042.52;615221;230;66372;-72
2022/05/20 04:32:11;;;;;;;;;;;;;;;22.79;59.09;98040.91;615205;230;66756;-72
2022/05/20 04:34:38;;;;;;;;;;;;;;;22.80;59.48;98041.72;615286;230;65592;-72
2022/05/20 04:37:06;;;;;;;;;;;;;;;22.78;58.44;98038.48;615208;230;66775;-72
2022/05/20 04:39:33;;;;;;;;;;;;;;;22.78;58.04;98030.44;615217;230;66611;-72
2022/05/20 04:47:33;;;;;;;;;;;;;;;22.79;58.76;98021.35;615251;230;66455;-73
2022/05/20 04:50:01;;;;;;;;;;;;;;;22.77;57.82;98016.23;615281;230;65362;-73
2022/05/20 04:52:28;;;;;;;;;;;;;;;22.78;58.10;98025.08;615187;230;66604;-71
2022/05/20 04:54:56;;;;;;;;;;;;;;;22.76;57.79;98019.99;615170;230;66964;-69
2022/05/20 04:57:25;;;;;;;;;;;;;;;22.78;58.18;98028.59;615194;230;65418;-69
2022/05/20 04:59:53;;;;;;;;;;;;;;;22.76;58.35;98025.35;615222;230;64556;-69
2022/05/20 05:02:21;;;;;;;;;;;;;;;22.76;59.19;98025.35;614574;230;66730;-69
2022/05/20 05:04:49;;;;;;;;;;;;;;;22.76;58.28;98022.67;610809;232;63070;-69
2022/05/20 05:07:17;;;;;;;;;;;;;;;22.76;58.53;98030.71;610621;232;64552;-69
2022/05/20 05:09:45;;;;;;;;;;;;;;;22.76;58.46;98029.91;610687;232;64569;-69
2022/05/20 05:12:14;;;;;;;;;;;;;;;22.76;57.84;98030.71;610751;232;62992;-69
2022/05/20 05:14:43;;;;;;;;;;;;;;;22.76;57.50;98025.35;610727;232;66761;-69
2022/05/20 05:17:12;;;;;;;;;;;;;;;22.75;58.75;98026.43;610495;232;66584;-72
2022/05/20 05:19:41;;;;;;;;;;;;;;;22.75;58.30;98029.11;610700;232;62988;-69
2022/05/20 05:22:09;;;;;;;;;;;;;;;22.75;58.17;98023.75;610412;232;67074;-69
2022/05/20 05:24:37;;;;;;;;;;;;;;;22.75;58.05;98023.75;610266;232;64582;-69
2022/05/20 05:27:05;;;;;;;;;;;;;;;22.75;58.72;98022.92;610710;232;63055;-69
2022/05/20 05:29:34;;;;;;;;;;;;;;;22.74;58.95;98022.12;610760;232;64339;-69
2022/05/20 05:32:02;;;;;;;;;;;;;;;22.74;59.83;98021.31;610651;232;66627;-70
2022/05/20 05:34:29;;;;;;;;;;;;;;;22.73;59.14;98020.52;610659;228;65553;-69
2022/05/20 05:36:58;;;;;;;;;;;;;;;22.73;59.30;98014.35;610734;228;64492;-69
2022/05/20 05:39:28;;;;;;;;;;;;;;;22.73;58.69;98011.67;610688;228;66653;-69
2022/05/20 05:41:57;;;;;;;;;;;;;;;22.73;60.03;98012.47;610752;232;65394;-70
2022/05/20 05:44:24;;;;;;;;;;;;;;;22.72;58.38;98024.23;610695;232;67383;-70
2022/05/20 05:46:52;;;;;;;;;;;;;;;22.72;59.72;98024.23;610568;232;66710;-71
2022/05/20 05:49:19;;;;;;;;;;;;;;;22.71;59.84;98022.64;608850;232;65151;-73
2022/05/20 05:51:47;;;;;;;;;;;;;;;22.69;58.71;98016.72;610369;232;66788;-71
2022/05/20 05:54:14;;;;;;;;;;;;;;;22.70;60.45;98026.39;610403;232;66711;-74
2022/05/20 05:56:42;;;;;;;;;;;;;;;22.68;58.44;98017.80;610722;232;65433;-71
2022/05/20 05:59:09;;;;;;;;;;;;;;;22.69;58.68;98014.04;610642;232;66933;-72
2022/05/20 06:01:37;;;;;;;;;;;;;;;22.68;58.30;98017.80;610233;232;64064;-71
2022/05/20 06:04:05;;;;;;;;;;;;;;;22.68;58.57;98020.48;608740;233;65389;-71
2022/05/20 06:06:32;;;;;;;;;;;;;;;22.67;59.26;98024.23;609355;232;66842;-71
2022/05/20 06:08:59;;;;;;;;;;;;;;;22.67;59.35;98010.00;609655;232;66794;-71
2022/05/20 06:11:27;;;;;;;;;;;;;;;22.66;58.92;98009.20;609735;232;65086;-71
2022/05/20 06:13:56;;;;;;;;;;;;;;;22.67;59.43;98013.52;609578;232;66903;-74
2022/05/20 06:16:23;;;;;;;;;;;;;;;22.67;59.09;98002.80;609657;232;64595;-69
2022/05/20 06:18:51;;;;;;;;;;;;;;;22.67;58.49;98000.12;609714;232;63086;-71
2022/05/20 06:21:18;;;;;;;;;;;;;;;22.68;58.72;98008.95;611381;230;64110;-71
2022/05/20 06:23:46;;;;;;;;;;;;;;;22.69;58.78;98000.64;611844;232;64371;-71
2022/05/20 06:26:13;;;;;;;;;;;;;;;22.69;57.88;98002.52;611848;232;63177;-71
2022/05/20 06:28:41;;;;;;;;;;;;;;;22.70;58.78;98002.28;611738;232;66606;-71
2022/05/20 06:31:09;;;;;;;;;;;;;;;22.69;59.11;98000.64;611857;232;66872;-71
2022/05/20 06:33:36;;;;;;;;;;;;;;;22.68;59.18;97999.04;611731;232;63874;-69
2022/05/20 06:41:36;;;;;;;;;;;;;;;22.70;59.79;98004.95;611832;232;65465;-71
2022/05/20 06:44:03;;;;;;;;;;;;;;;22.70;58.50;98004.13;611720;232;64378;-71
2022/05/20 06:46:31;;;;;;;;;;;;;;;22.70;58.71;98002.28;611873;232;64577;-71
2022/05/20 06:48:59;;;;;;;;;;;;;;;22.69;58.71;97997.16;611888;232;62976;-71
2022/05/20 06:51:28;;;;;;;;;;;;;;;22.70;59.28;98006.80;611788;232;66748;-71
2022/05/20 06:53:56;;;;;;;;;;;;;;;22.70;58.61;98002.28;611862;232;66834;-72
2022/05/20 06:56:24;;;;;;;;;;;;;;;22.70;58.24;98002.28;611871;232;63914;-72
2022/05/20 06:58:53;;;;;;;;;;;;;;;22.71;59.52;98001.20;611737;230;64670;-69
2022/05/20 07:01:20;;;;;;;;;;;;;;;22.71;59.98;98003.87;611889;232;64173;-75
2022/05/20 07:03:48;;;;;;;;;;;;;;;22.72;58.61;97999.32;611844;231;62999;-75
2022/05/20 07:06:16;;;;;;;;;;;;;;;22.74;58.94;97994.52;611834;232;66473;-72
2022/05/20 07:08:50;;;;;;;;;;;;;;;22.75;59.07;97996.13;611883;230;66440;-72
2022/05/20 07:11:20;;;;;;;;;;;;;;;22.75;58.94;97999.63;611817;232;63045;-71
2022/05/20 07:13:48;;;;;;;;;;;;;;;22.76;59.07;97995.87;611521;231;65324;-72
2022/05/20 07:16:16;;;;;;;;;;;;;;;22.77;59.46;98000.16;611026;231;69568;-73
2022/05/20 07:18:43;;;;;;;;;;;;;;;22.77;59.89;97999.36;611754;232;65136;-73
2022/05/20 07:21:10;;;;;;;;;;;;;;;22.77;59.98;97989.44;611747;232;66839;-73
2022/05/20 07:23:38;;;;;;;;;;;;;;;22.78;59.91;97988.39;611648;232;64835;-73
2022/05/20 07:26:06;;;;;;;;;;;;;;;22.79;60.02;97987.31;611783;232;63013;-73
2022/05/20 07:28:33;;;;;;;;;;;;;;;22.80;60.21;97993.48;611897;232;66825;-73
2022/05/20 07:31:01;;;;;;;;;;;;;;;22.80;59.97;97991.59;611910;232;66822;-73
2022/05/20 07:33:30;;;;;;;;;;;;;;;22.80;59.77;97988.12;611737;230;65153;-73
2022/05/20 07:35:58;;;;;;;;;;;;;;;22.81;59.37;97985.19;611842;232;64542;-73
2022/05/20 07:38:27;;;;;;;;;;;;;;;22.82;59.46;97991.35;611841;232;64573;-73
2022/05/20 07:40:58;;;;;;;;;;;;;;;22.82;59.80;97986.80;611813;232;63066;-73
2022/05/20 07:43:25;;;;;;;;;;;;;;;22.83;59.64;97988.42;611863;232;66712;-73
2022/05/20 07:45:54;;;;;;;;;;;;;;;22.85;59.79;97976.63;611738;231;64156;-73
2022/05/20 07:48:21;;;;;;;;;;;;;;;22.85;59.59;97976.63;611796;232;65404;-71
2022/05/20 07:50:50;;;;;;;;;;;;;;;22.86;59.82;97975.55;611836;232;68111;-73
2022/05/20 07:53:33;;;;;;;;;;;;;;;22.86;59.80;97978.23;611690;232;66883;-73
2022/05/20 07:55:54;;;;;;;;;;;;;;;22.85;58.35;97973.95;611735;230;65133;-72
2022/05/20 07:58:23;;;;;;;;;;;;;;;22.88;58.97;97984.14;611811;232;64319;-71
2022/05/20 08:00:50;;;;;;;;;;;;;;;22.87;58.31;97975.30;611745;232;66615;-70
2022/05/20 08:05:51;;;;;;;;;;;;;;;22.87;57.93;97975.30;612269;231;66767;-73
2022/05/20 08:08:18;;;;;;;;;;;;;;;22.88;58.05;97976.11;611765;232;64843;-73
2022/05/20 08:10:46;;;;;;;;;;;;;;;22.88;57.52;97966.19;611806;232;65135;-73
2022/05/20 08:13:14;;;;;;;;;;;;;;;22.90;57.68;97976.66;611839;232;66857;-73
2022/05/20 08:15:41;;;;;;;;;;;;;;;22.89;57.41;97973.18;611833;232;66603;-72
2022/05/20 08:18:09;;;;;;;;;;;;;;;22.91;58.34;97972.91;611820;232;62964;-73
2022/05/20 08:20:37;;;;;;;;;;;;;;;22.91;57.67;97978.27;611894;232;66761;-71
2022/05/20 08:23:04;;;;;;;;;;;;;;;22.91;57.85;97979.06;611789;232;66752;-73
2022/05/20 08:25:35;;;;;;;;;;;;;;;22.92;57.88;97974.53;611795;232;65131;-76
2022/05/20 08:28:02;;;;;;;;;;;;;;;22.93;57.74;97974.26;611860;232;66749;-76
2022/05/20 08:30:30;;;;;;;;;;;;;;;22.93;57.89;97971.58;611818;232;64215;-73
2022/05/20 08:32:57;;;;;;;;;;;;;;;22.93;57.38;97971.58;611923;232;65157;-73
2022/05/20 08:35:27;;;;;;;;;;;;;;;22.95;58.00;97974.81;611806;232;66824;-72
2022/05/20 08:37:54;;;;;;;;;;;;;;;22.96;56.79;97978.33;611728;232;66984;-72
2022/05/20 08:40:25;;;;;;;;;;;;;;;22.96;57.67;97964.92;611916;230;65316;-70
2022/05/20 08:42:55;;;;;;;;;;;;;;;22.96;57.73;97967.60;611812;232;66593;-74
2022/05/20 08:45:24;;;;;;;;;;;;;;;22.97;57.50;97961.16;611801;232;66674;-75
2022/05/20 08:47:52;;;;;;;;;;;;;;;22.96;57.57;97954.20;611896;230;65295;-78
2022/05/20 08:50:21;;;;;;;;;;;;;;;22.97;58.02;97948.59;611782;230;66405;-76
2022/05/20 08:52:50;;;;;;;;;;;;;;;22.99;57.47;97954.47;611803;232;67567;-78
2022/05/20 08:55:18;;;;;;;;;;;;;;;23.00;57.89;97949.94;611581;232;63055;-76
2022/05/20 08:57:47;;;;;;;;;;;;;;;22.99;54.94;97942.95;611797;232;66469;-73
2022/05/20 09:00:15;;;;;;;;;;;;;;;23.01;56.72;97943.50;611896;232;66723;-73
2022/05/20 09:02:42;;;;;;;;;;;;;;;23.01;56.81;97938.95;609508;229;65062;-73
2022/05/20 09:05:14;;;;;;;;;;;;;;;23.03;57.70;97938.70;603997;235;67167;-74
2022/05/20 09:08:02;;;;;;;;;;;;;;;23.04;58.18;97934.94;603828;235;66607;-74
2022/05/20 09:10:38;;;;;;;;;;;;;;;23.03;58.60;97938.70;603925;235;65378;-74
2022/05/20 09:13:07;;;;;;;;;;;;;;;23.03;57.64;97936.81;604023;235;66754;-73
2022/05/20 09:15:44;;;;;;;;;;;;;;;23.06;57.52;97942.73;604003;234;66840;-72
2022/05/20 09:18:13;;;;;;;;;;;;;;;23.05;58.22;97939.22;604134;235;65465;-73
2022/05/20 09:20:44;;;;;;;;;;;;;;;23.06;57.89;97926.64;604103;235;64338;-73
2022/05/20 09:23:13;;;;;;;;;;;;;;;23.07;58.36;97931.73;604049;235;66946;-73
2022/05/20 09:25:46;;;;;;;;;;;;;;;23.07;57.37;97925.56;603960;235;63217;-75
2022/05/20 09:28:15;;;;;;;;;;;;;;;23.13;56.99;97933.35;603319;235;66813;-75
2022/05/20 09:30:44;;;;;;;;;;;;;;;23.12;58.12;97931.75;603958;233;66743;-77
2022/05/20 09:33:13;;;;;;;;;;;;;;;23.10;58.24;97928.52;603370;233;65327;-76
2022/05/20 09:35:41;;;;;;;;;;;;;;;23.10;57.62;97925.03;603242;235;64582;-76
2022/05/20 09:38:09;;;;;;;;;;;;;;;23.10;58.02;97923.16;602872;235;64576;-76
2022/05/20 09:40:39;;;;;;;;;;;;;;;23.10;57.88;97923.16;603834;235;61983;-75
2022/05/20 09:43:08;;;;;;;;;;;;;;;23.10;57.45;97916.99;604029;235;66941;-71
2022/05/20 09:45:46;;;;;;;;;;;;;;;23.09;57.02;97918.07;604094;235;66642;-73
2022/05/20 09:48:16;;;;;;;;;;;;;;;23.07;56.25;97912.16;603996;235;62620;-74
2022/05/20 09:50:45;;;;;;;;;;;;;;;23.09;57.61;97910.83;604070;235;64910;-72
2022/05/20 09:53:26;;;;;;;;;;;;;;;23.09;58.16;97910.83;603623;235;67005;-74
2022/05/20 09:55:55;;;;;;;;;;;;;;;23.10;57.94;97909.75;604049;235;65093;-72
2022/05/20 09:58:27;;;;;;;;;;;;;;;23.11;59.11;97903.34;603407;235;66763;-72
2022/05/20 10:00:56;;;;;;;;;;;;;;;23.11;58.10;97899.83;604172;235;64718;-73
2022/05/20 10:03:25;;;;;;;;;;;;;;;23.11;58.17;97889.93;608481;232;63898;-73
2022/05/20 10:05:54;;;;;;;;;;;;;;;23.11;58.63;97900.66;611792;232;66793;-73
2022/05/20 10:08:23;;;;;;;;;;;;;;;23.13;58.27;97893.13;611746;230;66501;-74
2022/05/20 10:11:04;;;;;;;;;;;;;;;23.12;58.01;97899.58;611804;232;65370;-73
2022/05/20 10:13:52;;;;;;;;;;;;;;;23.13;59.02;97893.13;611753;230;66522;-73
2022/05/20 10:16:36;;;;;;;;;;;;;;;23.14;59.23;97889.40;611790;230;64623;-73
2022/05/20 10:19:21;;;;;;;;;;;;;;;23.14;59.25;97889.40;611893;232;65488;-74
2022/05/20 10:21:50;;;;;;;;;;;;;;;23.14;58.72;97881.36;611848;232;64826;-74
2022/05/20 10:24:20;;;;;;;;;;;;;;;23.15;59.55;97877.59;611805;230;62008;-74
2022/05/20 10:26:52;;;;;;;;;;;;;;;23.15;59.47;97868.75;611870;232;63258;-74
2022/05/20 10:32:38;;;;;;;;;;;;;;;23.15;59.76;97863.39;611833;232;64693;-73
2022/05/20 10:35:07;;;;;;;;;;;;;;;23.14;59.56;97859.91;611844;232;65374;-72
2022/05/20 10:37:52;;;;;;;;;;;;;;;23.15;59.26;97856.14;611840;232;66729;-71
2022/05/20 10:40:34;;;;;;;;;;;;;;;23.15;59.75;97848.09;611935;232;66646;-72
2022/05/20 10:43:12;;;;;;;;;;;;;;;23.15;59.21;97852.66;611729;232;65363;-71
2022/05/20 10:48:38;;;;;;;;;;;;;;;23.15;59.80;97848.09;611868;232;66819;-72
2022/05/20 10:51:24;;;;;;;;;;;;;;;23.16;60.21;97840.86;611795;232;65360;-72
2022/05/20 10:54:06;;;;;;;;;;;;;;;23.17;59.85;97837.13;611836;232;65003;-72
2022/05/20 10:56:44;;;;;;;;;;;;;;;23.15;57.16;97837.37;611004;232;66644;-72
2022/05/20 10:59:22;;;;;;;;;;;;;;;23.16;58.41;97833.64;611806;232;65308;-72
2022/05/20 11:02:06;;;;;;;;;;;;;;;23.16;60.09;97839.00;611932;232;66936;-72
2022/05/20 11:04:45;;;;;;;;;;;;;;;23.15;59.54;97829.33;611955;232;62511;-72
2022/05/20 11:07:19;;;;;;;;;;;;;;;23.16;60.12;97822.91;611733;232;65402;-73
2022/05/20 11:10:01;;;;;;;;;;;;;;;23.16;59.64;97822.91;611854;232;66583;-74
2022/05/20 11:12:39;;;;;;;;;;;;;;;23.15;59.56;97826.65;611815;232;64480;-74
2022/05/20 11:15:11;;;;;;;;;;;;;;;23.16;59.89;97817.55;611879;232;63271;-74
2022/05/20 11:17:54;;;;;;;;;;;;;;;23.17;59.22;97810.31;611827;232;64315;-75
2022/05/20 11:20:41;;;;;;;;;;;;;;;23.16;59.49;97812.19;611808;232;64229;-70
2022/05/20 11:23:15;;;;;;;;;;;;;;;23.16;58.98;97803.31;611697;232;64103;-70
2022/05/20 11:25:57;;;;;;;;;;;;;;;23.16;59.09;97809.51;611687;232;64403;-69
2022/05/20 11:28:29;;;;;;;;;;;;;;;23.17;59.32;97807.63;611701;232;66710;-72
2022/05/20 11:31:13;;;;;;;;;;;;;;;23.17;58.27;97808.42;611821;232;63103;-72
2022/05/20 11:33:56;;;;;;;;;;;;;;;23.17;59.08;97805.74;611653;232;64287;-73
2022/05/20 11:36:31;;;;;;;;;;;;;;;23.18;59.29;97807.34;611837;230;64580;-71
2022/05/20 11:39:06;;;;;;;;;;;;;;;23.18;59.37;97801.98;611646;232;65319;-73
2022/05/20 11:41:44;;;;;;;;;;;;;;;23.19;60.17;97802.78;611778;232;67064;-73
2022/05/20 11:44:29;;;;;;;;;;;;;;;23.20;60.27;97788.32;611700;232;64524;-70
2022/05/20 11:47:01;;;;;;;;;;;;;;;23.19;60.08;97784.01;611840;230;63211;-72
2022/05/20 11:49:38;;;;;;;;;;;;;;;23.19;59.47;97782.16;611718;232;66815;-73
2022/05/20 11:52:19;;;;;;;;;;;;;;;23.19;59.95;97771.44;611705;232;66587;-71
2022/05/20 11:54:49;;;;;;;;;;;;;;;23.20;60.54;97766.88;611852;232;63121;-71
2022/05/20 11:57:26;;;;;;;;;;;;;;;23.20;59.76;97764.98;611408;232;64802;-70
2022/05/20 12:00:02;;;;;;;;;;;;;;;23.19;60.26;97768.75;611844;230;66676;-72
2022/05/20 12:02:33;;;;;;;;;;;;;;;23.21;60.77;97758.54;611891;232;42705;-72
2022/05/20 12:05:01;;;;;;;;;;;;;;;23.20;59.94;97751.58;611786;232;66751;-72
2022/05/20 12:07:29;;;;;;;;;;;;;;;23.20;60.83;97751.58;611791;231;66659;-72
2022/05/20 12:09:58;;;;;;;;;;;;;;;23.21;60.46;97755.86;611798;232;65174;-72
2022/05/20 12:12:27;;;;;;;;;;;;;;;23.22;58.50;97749.44;611792;232;66687;-74
2022/05/20 12:14:56;;;;;;;;;;;;;;;23.24;60.17;97746.48;611896;230;64555;-73
2022/05/20 12:17:42;;;;;;;;;;;;;;;23.21;58.74;97745.13;611759;232;63077;-74
2022/05/20 12:26:00;;;;;;;;;;;;;;;23.17;57.66;97736.03;611596;230;63254;-73
2022/05/20 12:28:29;;;;;;;;;;;;;;;23.18;60.90;97728.78;610953;232;66950;-73
2022/05/20 12:31:01;;;;;;;;;;;;;;;23.16;59.96;97723.70;610899;232;65762;-73
2022/05/20 12:33:30;;;;;;;;;;;;;;;23.14;58.44;97720.48;610881;232;65552;-73
2022/05/20 12:36:05;;;;;;;;;;;;;;;23.15;58.53;97714.03;610181;230;66775;-73
2022/05/20 12:38:33;;;;;;;;;;;;;;;23.16;59.31;97723.70;610077;232;65483;-76
2022/05/20 12:41:01;;;;;;;;;;;;;;;23.14;58.00;97717.80;610989;232;63081;-77
2022/05/20 12:43:42;;;;;;;;;;;;;;;23.15;58.76;97721.28;610973;232;66784;-71
2022/05/20 12:46:12;;;;;;;;;;;;;;;23.16;57.90;97715.66;610895;232;64626;-70
2022/05/20 12:48:39;;;;;;;;;;;;;;;23.14;56.36;97704.39;611021;232;65375;-72
2022/05/20 12:51:08;;;;;;;;;;;;;;;23.16;57.72;97706.79;611052;232;64115;-73
2022/05/20 12:53:38;;;;;;;;;;;;;;;23.14;57.83;97685.63;611764;230;66698;-76
2022/05/20 12:56:06;;;;;;;;;;;;;;;23.15;57.92;97694.47;613563;230;65400;-75
2022/05/20 12:58:34;;;;;;;;;;;;;;;23.14;57.73;97688.30;612801;230;67010;-76
2022/05/20 13:01:07;;;;;;;;;;;;;;;23.13;57.18;97689.36;615938;230;64568;-76
2022/05/20 13:03:37;;;;;;;;;;;;;;;23.14;57.28;97682.14;613472;230;63253;-76
2022/05/20 13:06:06;;;;;;;;;;;;;;;23.14;57.72;97684.83;612009;232;67183;-76
2022/05/20 13:08:38;;;;;;;;;;;;;;;23.13;57.44;97683.20;611516;231;64642;-75
2022/05/20 13:11:09;;;;;;;;;;;;;;;23.13;57.70;97691.24;609370;231;63008;-75
2022/05/20 13:13:37;;;;;;;;;;;;;;;23.12;57.37;97681.60;610028;232;64587;-78
2022/05/20 13:16:06;;;;;;;;;;;;;;;23.12;57.30;97678.92;610062;232;64496;-75
2022/05/20 13:18:35;;;;;;;;;;;;;;;23.12;56.60;97674.36;610127;232;65539;-73
2022/05/20 13:21:15;;;;;;;;;;;;;;;23.11;57.35;97670.08;609943;231;66942;-76
2022/05/20 13:23:40;;;;;;;;;;;;;;;23.12;56.91;97673.56;610089;231;66697;-78
2022/05/20 13:26:09;;;;;;;;;;;;;;;23.12;57.21;97668.20;610065;232;63231;-77
2022/05/20 13:28:37;;;;;;;;;;;;;;;23.11;57.30;97662.03;609645;231;64343;-75
2022/05/20 13:31:09;;;;;;;;;;;;;;;23.11;56.92;97650.48;610133;232;64409;-74
2022/05/20 13:33:38;;;;;;;;;;;;;;;23.12;56.72;97657.47;610017;232;65581;-75
2022/05/20 13:36:09;;;;;;;;;;;;;;;23.12;55.93;97647.55;610020;232;66699;-74
2022/05/20 13:38:40;;;;;;;;;;;;;;;23.12;54.97;97646.75;610104;232;66511;-74
2022/05/20 13:41:11;;;;;;;;;;;;;;;23.12;56.60;97641.39;610140;231;49201;-74